createdAt,value
2022-11-24T17:31:55.826Z,96106.22
2022-11-24T17:46:26.565Z,96122.53
2022-11-24T17:48:56.673Z,96116.16
2022-11-24T17:51:25.406Z,96111.16
2022-11-24T17:53:55.585Z,96113.81
2022-11-24T17:56:23.721Z,96110.72
2022-11-24T17:58:59.703Z,96118.56
2022-11-24T18:04:10.039Z,96116.38
2022-11-24T18:06:37.149Z,96125.59
2022-11-24T18:09:05.524Z,96130.44
2022-11-24T18:11:36.400Z,96126.19
2022-11-24T18:14:05.033Z,96127.31
2022-11-24T18:16:35.811Z,96134.75
2022-11-24T18:19:11.045Z,96139.66
2022-11-24T18:21:38.443Z,96152.56
2022-11-24T18:24:10.450Z,96150.56
2022-11-24T18:26:48.882Z,96149.03
2022-11-24T18:29:17.348Z,96146.75
2022-11-24T18:31:44.147Z,96139.44
2022-11-24T18:34:11.534Z,96146.19
2022-11-24T18:36:41.751Z,96147.00
2022-11-24T18:39:09.008Z,96156.78
2022-11-24T18:41:35.814Z,96151.81
2022-11-24T18:44:02.889Z,96134.91
2022-11-24T18:46:33.255Z,96143.34
2022-11-24T18:49:01.145Z,96138.13
2022-11-24T18:51:37.438Z,96139.47
2022-11-24T18:54:09.813Z,96138.97
2022-11-24T18:56:37.985Z,96146.94
2022-11-24T18:59:06.622Z,96150.53
2022-11-24T19:01:37.058Z,96130.69
2022-11-24T19:04:05.913Z,96125.34
2022-11-24T19:06:32.965Z,96124.53
2022-11-24T19:08:59.842Z,96120.63
2022-11-24T19:14:06.762Z,96112.72
2022-11-24T19:19:21.434Z,96105.78
2022-11-24T19:21:52.966Z,96102.91
2022-11-24T19:24:23.555Z,96111.47
2022-11-24T19:29:44.318Z,96116.66
2022-11-24T19:32:11.554Z,96119.09
2022-11-24T19:34:40.282Z,96126.25
2022-11-24T19:37:08.018Z,96127.00
2022-11-24T19:42:18.075Z,96127.19
2022-11-24T19:44:45.306Z,96121.47
2022-11-24T19:47:12.680Z,96117.41
2022-11-24T19:49:41.628Z,96115.56
2022-11-24T19:52:27.739Z,96116.41
2022-11-24T19:54:54.408Z,96110.38
2022-11-24T19:57:23.064Z,96103.97
2022-11-24T20:11:55.947Z,96111.75
2022-11-24T20:14:43.313Z,96112.84
2022-11-24T20:17:12.233Z,96113.66
2022-11-24T20:19:40.104Z,96114.91
2022-11-24T20:39:15.629Z,96130.72
2022-11-24T20:41:45.351Z,96134.72
2022-11-24T21:21:39.144Z,96147.81
